Time;durP1;ratioP1;P1;durP2;ratioP2;P2;SDS_P1;SDS_P2;PMS_P1;PMS_P2;Temp;Humidity;BMP_temperature;BMP_pressure;BME280_temperature;BME280_humidity;BME280_pressure;Samples;Min_cycle;Max_cycle;Signal;HPM_P1;HPM_P2
2022/05/01 00:01:43;;;;;;;15.90;14.20;;;8.80;99.90;;;;;;5105344;28;20049;-73
2022/05/01 00:04:09;;;;;;;18.52;15.63;;;8.70;99.90;;;;;;5088459;28;20290;-72
2022/05/01 00:06:35;;;;;;;16.60;14.75;;;8.70;99.90;;;;;;5098204;28;20071;-73
2022/05/01 00:09:01;;;;;;;16.52;14.85;;;8.70;99.90;;;;;;5093824;28;20047;-73
2022/05/01 00:11:28;;;;;;;16.20;14.48;;;8.70;99.90;;;;;;5097088;28;20058;-73
2022/05/01 00:13:54;;;;;;;16.65;14.55;;;8.80;99.90;;;;;;5093769;28;20063;-73
2022/05/01 00:16:20;;;;;;;16.23;14.32;;;8.80;99.90;;;;;;5092328;28;20403;-73
2022/05/01 00:18:45;;;;;;;16.58;14.90;;;8.80;99.90;;;;;;5091711;28;20043;-73
2022/05/01 00:21:11;;;;;;;16.95;15.13;;;8.70;99.90;;;;;;5096445;28;20036;-73
2022/05/01 00:23:38;;;;;;;16.58;14.75;;;8.70;99.90;;;;;;5090188;28;20032;-73
2022/05/01 00:26:05;;;;;;;17.08;15.13;;;8.70;99.90;;;;;;5093130;28;20611;-72
2022/05/01 00:28:32;;;;;;;17.17;15.38;;;8.70;99.90;;;;;;5093574;28;20122;-73
2022/05/01 00:30:57;;;;;;;19.23;16.15;;;8.70;99.90;;;;;;5093085;28;20805;-74
2022/05/01 00:36:25;;;;;;;17.33;15.52;;;8.70;99.90;;;;;;5086102;28;20475;-72
2022/05/01 00:38:57;;;;;;;20.45;15.98;;;8.70;99.90;;;;;;5109576;28;20205;-73
2022/05/01 00:41:24;;;;;;;16.83;14.90;;;8.60;99.90;;;;;;5089963;28;20162;-73
2022/05/01 00:44:10;;;;;;;17.10;14.95;;;8.70;99.90;;;;;;5101697;28;20130;-73
2022/05/01 00:46:41;;;;;;;17.83;16.02;;;8.70;99.90;;;;;;5094978;27;20052;-73
2022/05/01 00:49:10;;;;;;;17.58;15.70;;;8.70;99.90;;;;;;5099864;27;20040;-73
2022/05/01 00:51:41;;;;;;;18.05;15.55;;;8.60;99.90;;;;;;5096163;27;20132;-73
2022/05/01 00:54:07;;;;;;;18.35;16.42;;;8.60;99.90;;;;;;5101385;27;20043;-73
2022/05/01 00:56:41;;;;;;;16.52;14.82;;;8.60;99.90;;;;;;5104917;28;20139;-72
2022/05/01 00:59:08;;;;;;;17.63;15.82;;;8.60;99.90;;;;;;5093144;27;20040;-73
2022/05/01 01:01:35;;;;;;;18.08;16.15;;;8.60;99.90;;;;;;5100608;27;20044;-73
2022/05/01 01:04:01;;;;;;;17.42;15.35;;;8.60;99.90;;;;;;5100818;27;20087;-73
2022/05/01 01:06:29;;;;;;;18.35;15.82;;;8.60;99.90;;;;;;5095732;28;20060;-73
2022/05/01 01:08:55;;;;;;;18.77;16.20;;;8.60;99.90;;;;;;5096921;28;20075;-73
2022/05/01 01:11:20;;;;;;;17.63;15.75;;;8.60;99.90;;;;;;5092056;27;20121;-73
2022/05/01 01:13:47;;;;;;;17.65;15.70;;;8.60;99.90;;;;;;5102629;27;20048;-73
2022/05/01 01:16:13;;;;;;;17.75;15.95;;;8.60;99.90;;;;;;5100190;27;20396;-73
2022/05/01 01:18:39;;;;;;;18.20;16.30;;;8.60;99.90;;;;;;5105730;27;20040;-73
2022/05/01 01:21:09;;;;;;;18.05;16.25;;;8.60;99.90;;;;;;5101051;27;20047;-73
2022/05/01 01:23:35;;;;;;;18.08;16.08;;;8.60;99.90;;;;;;5094614;27;20056;-73
2022/05/01 01:26:04;;;;;;;18.42;16.05;;;8.60;99.90;;;;;;5100207;27;20081;-73
2022/05/01 01:28:33;;;;;;;20.05;15.85;;;8.70;99.90;;;;;;5097148;27;20093;-73
2022/05/01 01:33:45;;;;;;;17.52;15.75;;;8.60;99.90;;;;;;5095353;27;20048;-73
2022/05/01 01:36:11;;;;;;;17.37;15.53;;;8.60;99.90;;;;;;5104351;27;20104;-73
2022/05/01 01:38:39;;;;;;;17.85;15.95;;;8.60;99.90;;;;;;5094468;27;20558;-73
2022/05/01 01:41:09;;;;;;;19.42;16.35;;;8.60;99.90;;;;;;5096097;27;20048;-74
2022/05/01 01:43:36;;;;;;;18.38;16.40;;;8.50;99.90;;;;;;5091681;27;20268;-73
2022/05/01 01:46:02;;;;;;;;;;;8.50;99.90;;;;;;5098107;27;20056;-73
2022/05/01 01:48:28;;;;;;;19.15;15.88;;;8.50;99.90;;;;;;5091879;27;19928;-73
2022/05/01 01:50:59;;;;;;;20.60;17.35;;;8.50;99.90;;;;;;5096528;27;20510;-73
2022/05/01 01:53:26;;;;;;;18.75;16.75;;;8.50;99.90;;;;;;5107551;27;20130;-73
2022/05/01 01:55:53;;;;;;;19.85;16.88;;;8.50;99.90;;;;;;5095965;27;20441;-73
2022/05/01 01:58:19;;;;;;;18.63;16.55;;;8.50;99.90;;;;;;5098001;27;20046;-73
2022/05/01 02:00:45;;;;;;;20.58;16.92;;;8.50;99.90;;;;;;5097080;27;20044;-74
2022/05/01 02:03:11;;;;;;;20.90;17.58;;;8.50;99.90;;;;;;5106467;27;20488;-73
2022/05/01 02:05:37;;;;;;;19.88;17.27;;;8.50;99.90;;;;;;5096285;27;20043;-74
2022/05/01 02:08:05;;;;;;;18.58;16.38;;;8.50;99.90;;;;;;5098571;27;20042;-74
2022/05/01 02:10:31;;;;;;;18.80;16.80;;;8.60;99.90;;;;;;5112262;27;20054;-73
2022/05/01 02:12:59;;;;;;;19.50;17.02;;;8.50;99.90;;;;;;5095646;27;20403;-74
2022/05/01 02:15:25;;;;;;;18.50;16.40;;;8.50;99.90;;;;;;5098732;27;20070;-74
2022/05/01 02:17:51;;;;;;;21.15;16.27;;;8.60;99.90;;;;;;5098682;27;20044;-74
2022/05/01 02:20:16;;;;;;;20.85;16.98;;;8.50;99.90;;;;;;5099994;27;20398;-73
2022/05/01 02:22:42;;;;;;;19.60;16.75;;;8.50;99.90;;;;;;5093375;27;20134;-74
2022/05/01 02:25:09;;;;;;;20.08;17.98;;;8.50;99.90;;;;;;5097559;27;20036;-74
2022/05/01 02:27:38;;;;;;;19.67;16.92;;;8.50;99.90;;;;;;5095178;27;20056;-75
2022/05/01 02:30:05;;;;;;;23.02;17.83;;;8.50;99.90;;;;;;5090178;27;20048;-74
2022/05/01 02:32:31;;;;;;;20.90;17.40;;;8.50;99.90;;;;;;5098354;27;20473;-74
2022/05/01 02:34:56;;;;;;;19.50;17.50;;;8.50;99.90;;;;;;5096560;27;20486;-73
2022/05/01 02:37:22;;;;;;;20.20;17.83;;;8.50;99.90;;;;;;5100283;27;20047;-73
2022/05/01 02:39:48;;;;;;;20.25;17.20;;;8.50;99.90;;;;;;5096958;28;20040;-73
2022/05/01 02:42:13;;;;;;;23.98;17.80;;;8.50;99.90;;;;;;5091120;28;20039;-73
2022/05/01 02:44:39;;;;;;;19.90;17.38;;;8.50;99.90;;;;;;5099169;27;20551;-73
2022/05/01 02:47:05;;;;;;;21.17;17.70;;;8.40;99.90;;;;;;5092727;27;20101;-73
2022/05/01 02:49:32;;;;;;;19.17;17.17;;;8.40;99.90;;;;;;5102812;27;20050;-73
2022/05/01 02:51:58;;;;;;;21.85;18.33;;;8.40;99.90;;;;;;5090937;27;20040;-73
2022/05/01 02:54:24;;;;;;;22.05;19.63;;;8.40;99.90;;;;;;5088696;28;20491;-73
2022/05/01 02:56:50;;;;;;;19.98;17.88;;;8.40;99.90;;;;;;5095229;27;20082;-73
2022/05/01 02:59:17;;;;;;;20.67;18.48;;;8.40;99.90;;;;;;5093663;28;20047;-73
2022/05/01 03:01:43;;;;;;;22.63;19.02;;;8.40;99.90;;;;;;5089234;28;20062;-73
2022/05/01 03:04:09;;;;;;;23.25;18.77;;;8.40;99.90;;;;;;5102737;28;20051;-73
2022/05/01 03:06:35;;;;;;;22.38;18.75;;;8.40;99.90;;;;;;5089403;27;20040;-73
2022/05/01 03:09:01;;;;;;;22.52;19.20;;;8.40;99.90;;;;;;5104490;27;20503;-73
2022/05/01 03:11:26;;;;;;;22.88;18.65;;;8.40;99.90;;;;;;5093027;28;20044;-73
2022/05/01 03:13:52;;;;;;;22.27;19.45;;;8.40;99.90;;;;;;5088852;28;20044;-73
2022/05/01 03:16:18;;;;;;;22.88;18.80;;;8.40;99.90;;;;;;5093508;27;20047;-73
2022/05/01 03:24:12;;;;;;;21.63;19.38;;;8.40;99.90;;;;;;5095791;27;20055;-73
2022/05/01 03:26:38;;;;;;;23.13;19.30;;;8.40;99.90;;;;;;5089830;28;20093;-73
2022/05/01 03:29:04;;;;;;;22.38;19.52;;;8.30;99.90;;;;;;5087685;28;20126;-74
2022/05/01 03:31:29;;;;;;;22.27;19.27;;;8.30;99.90;;;;;;5103428;28;20131;-73
2022/05/01 03:33:55;;;;;;;22.73;20.20;;;8.40;99.90;;;;;;5100443;28;20039;-74
2022/05/01 03:36:21;;;;;;;22.60;20.30;;;8.40;99.90;;;;;;5093823;27;20114;-73
2022/05/01 03:38:47;;;;;;;23.60;21.17;;;8.40;99.90;;;;;;5106090;28;20452;-74
2022/05/01 03:41:14;;;;;;;22.50;20.13;;;8.40;99.90;;;;;;5103550;28;20490;-73
2022/05/01 03:43:40;;;;;;;22.40;20.15;;;8.40;99.90;;;;;;5102982;27;20052;-72
2022/05/01 03:46:06;;;;;;;22.80;20.38;;;8.30;99.90;;;;;;5094055;28;20097;-73
2022/05/01 03:48:32;;;;;;;21.77;19.50;;;8.30;99.90;;;;;;5096319;28;20055;-72
2022/05/01 03:50:59;;;;;;;22.67;20.30;;;8.30;99.90;;;;;;5104817;28;20038;-73
2022/05/01 03:53:25;;;;;;;21.77;19.45;;;8.30;99.90;;;;;;5095325;28;20071;-73
2022/05/01 03:55:51;;;;;;;23.10;20.70;;;8.30;99.90;;;;;;5101622;28;20039;-73
2022/05/01 03:58:18;;;;;;;23.30;20.90;;;8.30;99.90;;;;;;5092118;28;20638;-73
2022/05/01 04:00:44;;;;;;;23.58;21.08;;;8.20;99.90;;;;;;5102380;28;20608;-73
2022/05/01 04:03:11;;;;;;;22.95;20.45;;;8.10;99.90;;;;;;5109409;28;20043;-73
2022/05/01 04:05:37;;;;;;;23.08;20.70;;;8.10;99.90;;;;;;5098130;28;20487;-72
2022/05/01 04:08:03;;;;;;;23.42;20.83;;;8.10;99.90;;;;;;5112285;27;20043;-72
2022/05/01 04:10:29;;;;;;;25.00;20.65;;;8.20;99.90;;;;;;5089418;28;20036;-72
2022/05/01 04:12:55;;;;;;;26.52;21.52;;;8.20;99.90;;;;;;5089806;28;20522;-73
2022/05/01 04:15:22;;;;;;;23.90;21.48;;;8.20;99.90;;;;;;5096969;28;20075;-73
2022/05/01 04:17:48;;;;;;;25.40;20.70;;;8.30;99.90;;;;;;5089268;28;20044;-73
2022/05/01 04:20:16;;;;;;;23.95;21.38;;;8.20;99.90;;;;;;5093217;27;20043;-73
2022/05/01 04:22:44;;;;;;;23.60;21.10;;;8.20;99.90;;;;;;5110099;27;20044;-73
2022/05/01 04:25:23;;;;;;;26.45;22.23;;;8.30;99.90;;;;;;5105578;27;20426;-73
2022/05/01 04:27:51;;;;;;;24.25;21.48;;;8.30;99.90;;;;;;5102428;27;20075;-73
2022/05/01 04:30:18;;;;;;;23.90;21.42;;;8.20;99.90;;;;;;5090258;28;20439;-73
2022/05/01 04:32:55;;;;;;;25.20;22.60;;;8.20;99.90;;;;;;5093358;27;20051;-73
2022/05/01 04:35:26;;;;;;;24.53;21.90;;;8.20;99.90;;;;;;5099116;27;20040;-73
2022/05/01 04:37:52;;;;;;;23.45;21.15;;;8.20;99.90;;;;;;5094137;27;20070;-74
2022/05/01 04:40:19;;;;;;;25.75;22.70;;;8.20;99.90;;;;;;5092632;27;20082;-73
2022/05/01 04:42:45;;;;;;;23.80;21.38;;;8.20;99.90;;;;;;5107635;28;20043;-73
2022/05/01 04:45:11;;;;;;;24.95;21.83;;;8.20;99.90;;;;;;5110355;27;20046;-74
2022/05/01 04:47:38;;;;;;;26.00;23.05;;;8.20;99.90;;;;;;5097739;27;20056;-73
2022/05/01 04:50:07;;;;;;;25.03;22.27;;;8.20;99.90;;;;;;5097006;28;20084;-73
2022/05/01 04:52:35;;;;;;;25.75;22.92;;;8.10;99.90;;;;;;5104899;27;20169;-73
2022/05/01 04:55:01;;;;;;;25.08;22.38;;;8.20;99.90;;;;;;5103748;28;20043;-73
2022/05/01 04:57:27;;;;;;;25.45;22.65;;;8.20;99.90;;;;;;5096445;28;20472;-73
2022/05/01 04:59:52;;;;;;;25.85;23.15;;;8.20;99.90;;;;;;5094941;27;20048;-73
2022/05/01 05:02:18;;;;;;;24.55;22.00;;;8.20;99.90;;;;;;5092883;27;20047;-73
2022/05/01 05:04:43;;;;;;;25.23;22.63;;;8.20;99.90;;;;;;5106949;27;20042;-73
2022/05/01 05:07:09;;;;;;;24.83;22.30;;;8.20;99.90;;;;;;5104868;27;20776;-73
2022/05/01 05:12:19;;;;;;;25.42;22.55;;;8.30;99.90;;;;;;5107728;28;20051;-73
2022/05/01 05:14:46;;;;;;;24.70;22.17;;;8.30;99.90;;;;;;5100838;28;20055;-73
2022/05/01 05:17:11;;;;;;;26.20;23.40;;;8.30;99.90;;;;;;5109381;28;20064;-73
2022/05/01 05:19:37;;;;;;;25.05;22.50;;;8.30;99.90;;;;;;5104455;28;20172;-73
2022/05/01 05:22:03;;;;;;;25.52;22.83;;;8.30;99.90;;;;;;5102372;28;20044;-73
2022/05/01 05:24:29;;;;;;;24.92;22.40;;;8.30;99.90;;;;;;5095425;27;20388;-73
2022/05/01 05:26:55;;;;;;;25.48;22.85;;;8.30;99.90;;;;;;5104994;27;20050;-73
2022/05/01 05:29:21;;;;;;;25.13;22.60;;;8.30;99.90;;;;;;5104725;28;20051;-73
2022/05/01 05:31:47;;;;;;;25.85;22.50;;;8.30;99.90;;;;;;5098290;28;20035;-73
2022/05/01 05:34:12;;;;;;;25.30;22.67;;;8.30;99.90;;;;;;5108786;28;20472;-73
2022/05/01 05:36:38;;;;;;;25.23;22.65;;;8.30;99.90;;;;;;5095499;28;20468;-73
2022/05/01 05:39:03;;;;;;;24.95;22.35;;;8.40;99.90;;;;;;5102681;27;20040;-73
2022/05/01 05:41:29;;;;;;;26.13;23.35;;;8.40;99.90;;;;;;5093143;28;20047;-73
2022/05/01 05:43:55;;;;;;;25.52;22.77;;;8.30;99.90;;;;;;5101654;28;20032;-72
2022/05/01 05:46:20;;;;;;;24.88;22.38;;;8.40;99.90;;;;;;5105835;28;20746;-73
2022/05/01 05:48:46;;;;;;;25.30;22.67;;;8.40;99.90;;;;;;5104081;27;20123;-73
2022/05/01 05:51:11;;;;;;;26.58;23.73;;;8.40;99.90;;;;;;5102462;28;20039;-73
2022/05/01 05:53:37;;;;;;;27.33;23.40;;;8.50;99.90;;;;;;5096482;28;20399;-73
2022/05/01 05:56:03;;;;;;;25.20;22.60;;;8.50;99.90;;;;;;5096098;27;20055;-73
2022/05/01 05:58:29;;;;;;;24.85;22.13;;;8.50;99.90;;;;;;5102266;27;20039;-73
2022/05/01 06:00:54;;;;;;;24.23;21.83;;;8.50;99.90;;;;;;5101118;27;20047;-73
2022/05/01 06:03:20;;;;;;;25.15;22.58;;;8.60;99.90;;;;;;5102106;28;20032;-73
2022/05/01 06:05:46;;;;;;;24.27;21.65;;;8.60;99.90;;;;;;5098728;28;20051;-73
2022/05/01 06:08:12;;;;;;;25.80;23.17;;;8.60;99.90;;;;;;5103459;28;20032;-73
2022/05/01 06:10:40;;;;;;;26.88;22.50;;;8.60;99.90;;;;;;5088884;28;20044;-73
2022/05/01 06:13:06;;;;;;;24.85;22.35;;;8.60;99.90;;;;;;5100261;28;20067;-73
2022/05/01 06:15:31;;;;;;;25.25;22.15;;;8.70;99.90;;;;;;5093736;27;20430;-73
2022/05/01 06:17:57;;;;;;;24.77;21.70;;;8.70;99.90;;;;;;5094314;27;20083;-73
2022/05/01 06:20:23;;;;;;;24.20;21.73;;;8.70;99.90;;;;;;5102542;27;20372;-73
2022/05/01 06:22:50;;;;;;;23.15;20.67;;;8.80;99.90;;;;;;5103553;27;20085;-73
2022/05/01 06:25:16;;;;;;;23.77;21.40;;;8.90;99.90;;;;;;5108893;28;20056;-72
2022/05/01 06:27:41;;;;;;;24.42;21.95;;;8.90;99.90;;;;;;5110136;27;20556;-73
2022/05/01 06:30:10;;;;;;;24.20;21.65;;;8.90;99.90;;;;;;5101710;27;20483;-73
2022/05/01 06:32:35;;;;;;;23.42;21.13;;;9.00;99.90;;;;;;5097837;27;20048;-73
2022/05/01 06:35:03;;;;;;;23.98;21.48;;;9.00;99.90;;;;;;5100578;28;20036;-74
2022/05/01 06:37:29;;;;;;;23.17;20.20;;;9.10;99.90;;;;;;5103282;27;20061;-72
2022/05/01 06:39:55;;;;;;;19.70;17.77;;;9.10;99.90;;;;;;5102853;27;20494;-73
2022/05/01 06:42:20;;;;;;;20.45;18.25;;;9.10;99.90;;;;;;5094191;27;20046;-72
2022/05/01 06:44:46;;;;;;;20.35;18.10;;;9.20;99.90;;;;;;5103642;27;20403;-72
2022/05/01 06:47:13;;;;;;;19.50;17.27;;;9.20;99.90;;;;;;5099504;27;20083;-72
2022/05/01 06:49:38;;;;;;;19.53;17.53;;;9.20;99.90;;;;;;5106123;28;20051;-71
2022/05/01 06:52:04;;;;;;;19.10;17.10;;;9.20;99.90;;;;;;5091582;27;20710;-70
2022/05/01 06:54:30;;;;;;;19.63;17.55;;;9.30;99.90;;;;;;5092281;27;20055;-72
2022/05/01 06:56:55;;;;;;;20.25;17.45;;;9.40;99.90;;;;;;5097844;27;20042;-72
2022/05/01 06:59:21;;;;;;;17.27;15.55;;;9.40;99.90;;;;;;5093519;27;20495;-71
2022/05/01 07:01:47;;;;;;;17.42;15.55;;;9.50;99.90;;;;;;5097435;27;20039;-72
2022/05/01 07:04:13;;;;;;;21.10;17.55;;;9.50;99.90;;;;;;5105709;27;20052;-76
2022/05/01 07:06:40;;;;;;;17.33;15.57;;;9.50;99.90;;;;;;5107947;28;20104;-75
2022/05/01 07:09:06;;;;;;;17.08;14.55;;;9.60;99.90;;;;;;5095613;27;20433;-75
2022/05/01 07:11:32;;;;;;;17.20;15.38;;;9.60;99.90;;;;;;5094701;28;20099;-78
2022/05/01 07:13:58;;;;;;;18.05;15.38;;;9.70;99.90;;;;;;5105877;28;20088;-78
2022/05/01 07:16:24;;;;;;;16.60;14.90;;;9.70;99.90;;;;;;5105679;27;20079;-77
2022/05/01 07:18:49;;;;;;;17.55;14.95;;;9.70;99.90;;;;;;5092856;28;20048;-77
2022/05/01 07:21:18;;;;;;;17.52;15.48;;;9.80;99.90;;;;;;5094927;28;20112;-78
2022/05/01 07:23:44;;;;;;;17.83;14.23;;;9.80;99.90;;;;;;5100775;27;20044;-75
2022/05/01 07:26:10;;;;;;;16.02;14.25;;;9.90;99.90;;;;;;5089111;28;20091;-75
2022/05/01 07:28:35;;;;;;;16.33;13.70;;;10.00;99.90;;;;;;5101977;28;20050;-75
2022/05/01 07:31:04;;;;;;;14.95;12.73;;;10.00;99.90;;;;;;5089856;28;20047;-74
2022/05/01 07:33:30;;;;;;;14.02;12.63;;;10.00;99.90;;;;;;5099452;28;20044;-75
2022/05/01 07:35:57;;;;;;;17.40;13.43;;;10.10;99.90;;;;;;5092185;28;20062;-76
2022/05/01 07:38:23;;;;;;;14.90;12.80;;;10.10;99.90;;;;;;5102107;27;20036;-76
2022/05/01 07:41:08;;;;;;;17.60;13.60;;;10.20;99.90;;;;;;5107196;28;20860;-76
2022/05/01 07:43:34;;;;;;;14.77;13.07;;;10.30;99.90;;;;;;5101685;28;20402;-76
2022/05/01 07:45:59;;;;;;;14.35;12.82;;;10.30;99.90;;;;;;5106366;28;20060;-76
2022/05/01 07:48:25;;;;;;;14.93;13.43;;;10.40;99.90;;;;;;5090541;28;20055;-76
2022/05/01 07:50:51;;;;;;;13.85;11.88;;;10.40;99.90;;;;;;5108219;27;20132;-75
2022/05/01 07:53:17;;;;;;;12.30;11.00;;;10.50;99.90;;;;;;5095752;28;20068;-75
2022/05/01 07:55:43;;;;;;;14.18;12.63;;;10.50;99.90;;;;;;5101377;27;20047;-75
2022/05/01 07:58:08;;;;;;;16.38;14.13;;;10.60;99.90;;;;;;5097417;27;20043;-75
2022/05/01 08:00:37;;;;;;;14.32;12.82;;;10.60;99.90;;;;;;5096225;28;20043;-75
2022/05/01 08:05:50;;;;;;;15.43;12.70;;;10.70;99.90;;;;;;5103262;28;20036;-76
2022/05/01 08:08:15;;;;;;;14.98;13.43;;;10.70;99.90;;;;;;5098278;28;20046;-75
2022/05/01 08:10:41;;;;;;;13.73;11.85;;;10.80;99.90;;;;;;5087848;28;20044;-75
2022/05/01 08:13:07;;;;;;;13.50;11.63;;;10.90;99.90;;;;;;5088911;28;20048;-75
2022/05/01 08:15:33;;;;;;;13.88;11.93;;;10.90;99.90;;;;;;5089186;28;20052;-75
2022/05/01 08:21:05;;;;;;;16.40;12.93;;;11.00;99.90;;;;;;5101533;28;20088;-75
2022/05/01 08:23:29;;;;;;;15.73;13.32;;;11.10;99.90;;;;;;5125107;27;20383;-75
2022/05/01 08:25:55;;;;;;;14.48;12.93;;;11.10;99.90;;;;;;5108391;28;20043;-75
2022/05/01 08:28:20;;;;;;;16.33;13.93;;;11.20;99.90;;;;;;5097358;28;20127;-75
2022/05/01 08:30:47;;;;;;;14.65;13.15;;;11.20;99.90;;;;;;5105853;28;20380;-75
2022/05/01 08:33:12;;;;;;;14.93;13.27;;;11.30;99.90;;;;;;5096261;28;20042;-75
2022/05/01 08:35:38;;;;;;;15.00;13.48;;;11.30;99.90;;;;;;5107309;28;20040;-75
2022/05/01 08:38:07;;;;;;;14.68;12.07;;;11.30;99.90;;;;;;5103794;28;20478;-75
2022/05/01 08:40:33;;;;;;;12.63;11.13;;;11.30;99.90;;;;;;5096846;28;20073;-75
2022/05/01 08:42:59;;;;;;;14.00;11.73;;;11.30;99.90;;;;;;5099785;28;20051;-75
2022/05/01 08:45:26;;;;;;;13.47;12.17;;;11.30;99.90;;;;;;5106849;28;20044;-75
2022/05/01 08:48:04;;;;;;;13.23;11.50;;;11.40;99.90;;;;;;5103714;28;20377;-75
2022/05/01 08:50:34;;;;;;;14.27;12.77;;;11.40;99.90;;;;;;5106728;28;20491;-75
2022/05/01 08:53:05;;;;;;;13.70;11.80;;;11.50;99.90;;;;;;5092558;28;20047;-75
2022/05/01 08:55:31;;;;;;;12.80;11.48;;;11.50;99.90;;;;;;5095134;28;20487;-75
2022/05/01 08:57:58;;;;;;;16.03;12.13;;;11.50;99.90;;;;;;5103448;28;20063;-74
2022/05/01 09:00:26;;;;;;;14.10;12.52;;;11.60;99.90;;;;;;5106000;28;20476;-74
2022/05/01 09:02:52;;;;;;;11.57;10.20;;;11.60;99.90;;;;;;5115698;28;20079;-73
2022/05/01 09:05:18;;;;;;;12.63;11.32;;;11.70;99.90;;;;;;5110793;28;20096;-74
2022/05/01 09:07:43;;;;;;;12.82;11.52;;;11.80;99.90;;;;;;5109565;28;20557;-74
2022/05/01 09:10:09;;;;;;;12.65;11.40;;;11.90;99.90;;;;;;5094538;28;20052;-75
2022/05/01 09:12:53;;;;;;;13.20;11.20;;;12.00;99.90;;;;;;5093170;27;20048;-75
2022/05/01 09:15:31;;;;;;;14.55;11.77;;;12.00;99.90;;;;;;5104775;27;20039;-74
2022/05/01 09:18:03;;;;;;;13.45;11.85;;;12.10;99.90;;;;;;5106050;27;20052;-75
2022/05/01 09:20:30;;;;;;;13.25;11.95;;;12.30;99.90;;;;;;5092437;28;20044;-74
2022/05/01 09:22:57;;;;;;;13.63;11.47;;;12.30;99.90;;;;;;5090726;28;20055;-75
2022/05/01 09:25:24;;;;;;;14.02;11.52;;;12.40;99.90;;;;;;5109296;27;20039;-75
2022/05/01 09:27:56;;;;;;;12.90;11.47;;;12.60;99.90;;;;;;5105857;27;20400;-76
2022/05/01 09:30:31;;;;;;;11.95;10.75;;;12.70;99.90;;;;;;5092165;28;20290;-77
2022/05/01 09:32:57;;;;;;;12.77;10.60;;;12.70;99.90;;;;;;5095113;28;20407;-76
2022/05/01 09:35:27;;;;;;;12.35;10.85;;;12.80;99.90;;;;;;5105792;27;20140;-77
2022/05/01 09:38:17;;;;;;;12.88;10.00;;;12.90;99.90;;;;;;5091269;28;20052;-77
2022/05/01 09:40:45;;;;;;;11.55;9.48;;;12.90;99.90;;;;;;5096122;27;20059;-76
2022/05/01 09:43:34;;;;;;;10.60;9.25;;;12.90;99.90;;;;;;5096350;28;20313;-73
2022/05/01 09:46:33;;;;;;;11.07;9.38;;;12.90;99.90;;;;;;5111907;28;20567;-74
2022/05/01 09:49:13;;;;;;;9.65;8.45;;;12.80;99.90;;;;;;5082756;28;20059;-75
2022/05/01 09:51:47;;;;;;;10.90;8.75;;;12.70;99.90;;;;;;5102491;28;20039;-75
2022/05/01 09:54:21;;;;;;;10.02;9.02;;;12.70;99.30;;;;;;5105568;28;20118;-75
2022/05/01 09:56:57;;;;;;;11.43;9.15;;;12.70;99.20;;;;;;5107623;27;20372;-76
2022/05/01 09:59:24;;;;;;;10.00;9.00;;;12.70;99.60;;;;;;5107934;27;20051;-75
2022/05/01 10:02:02;;;;;;;11.60;9.50;;;12.70;99.50;;;;;;5100318;27;20052;-74
2022/05/01 10:04:29;;;;;;;12.13;10.05;;;12.70;99.90;;;;;;5101511;27;20043;-74
2022/05/01 10:06:56;;;;;;;11.05;9.10;;;12.80;99.50;;;;;;5102086;27;20479;-76
2022/05/01 10:09:27;;;;;;;10.35;8.43;;;12.80;99.10;;;;;;5099096;27;20036;-78
2022/05/01 10:11:55;;;;;;;12.25;9.68;;;12.90;99.90;;;;;;5102675;28;20051;-75
2022/05/01 10:14:21;;;;;;;11.77;9.93;;;13.00;99.40;;;;;;5110805;28;20488;-75
2022/05/01 10:16:50;;;;;;;10.27;8.93;;;13.00;96.80;;;;;;5109779;27;20044;-73
2022/05/01 10:19:19;;;;;;;10.77;9.57;;;13.00;99.40;;;;;;5095549;28;20042;-74
2022/05/01 10:21:56;;;;;;;11.10;9.43;;;13.10;97.80;;;;;;5102567;27;20046;-74
2022/05/01 10:24:22;;;;;;;11.60;9.35;;;13.20;97.10;;;;;;5106697;27;20489;-75
2022/05/01 10:27:11;;;;;;;10.13;8.43;;;13.20;96.90;;;;;;5105183;27;20035;-74
2022/05/01 10:33:27;;;;;;;10.32;8.80;;;13.40;96.10;;;;;;5096732;27;20059;-73
2022/05/01 10:36:15;;;;;;;10.40;8.70;;;13.50;95.20;;;;;;5099624;28;20131;-74
2022/05/01 10:39:09;;;;;;;9.65;8.13;;;13.60;96.00;;;;;;5092063;27;20055;-74
2022/05/01 10:41:44;;;;;;;10.73;8.63;;;13.70;95.00;;;;;;5099197;27;20044;-77
2022/05/01 10:44:35;;;;;;;11.45;8.40;;;13.70;93.80;;;;;;5105285;28;20956;-75
2022/05/01 10:47:16;;;;;;;11.80;7.82;;;13.80;94.40;;;;;;5109499;28;20580;-72
2022/05/01 10:49:47;;;;;;;11.95;8.45;;;13.90;90.20;;;;;;5107934;28;20043;-77
2022/05/01 10:52:18;;;;;;;10.25;8.50;;;13.90;89.70;;;;;;5105587;27;20047;-75
2022/05/01 10:55:06;;;;;;;9.75;8.05;;;13.90;86.90;;;;;;5108643;28;20087;-76
2022/05/01 10:57:33;;;;;;;8.13;6.72;;;13.90;87.80;;;;;;5091971;28;20435;-74
2022/05/01 11:00:12;;;;;;;7.50;5.65;;;13.90;86.60;;;;;;5089482;27;20040;-74
2022/05/01 11:02:40;;;;;;;7.43;5.03;;;14.00;73.70;;;;;;5103005;28;20107;-76
2022/05/01 11:05:08;;;;;;;6.72;4.93;;;14.00;76.30;;;;;;5097196;27;20456;-73
2022/05/01 11:07:35;;;;;;;9.10;5.93;;;14.00;68.40;;;;;;5108995;27;20036;-74
2022/05/01 11:10:04;;;;;;;7.85;5.88;;;14.10;67.00;;;;;;5120288;27;20046;-74
2022/05/01 11:12:32;;;;;;;10.57;7.53;;;14.10;70.50;;;;;;5105270;27;20043;-76
2022/05/01 11:15:27;;;;;;;8.52;6.88;;;14.20;77.30;;;;;;5095900;27;20055;-76
2022/05/01 11:17:54;;;;;;;7.47;6.28;;;14.30;70.90;;;;;;5099653;28;20051;-76
2022/05/01 11:20:19;;;;;;;6.85;5.47;;;14.40;74.40;;;;;;5091648;28;20460;-76
2022/05/01 11:22:46;;;;;;;7.32;5.60;;;14.40;66.60;;;;;;5088927;28;20087;-76
2022/05/01 11:25:17;;;;;;;8.53;5.73;;;14.40;63.60;;;;;;5091045;28;20047;-75
2022/05/01 11:27:48;;;;;;;9.02;6.07;;;14.40;64.70;;;;;;5107258;27;20162;-76
2022/05/01 11:30:35;;;;;;;8.80;6.03;;;14.40;64.60;;;;;;5094143;28;20063;-76
2022/05/01 11:33:06;;;;;;;7.28;5.10;;;14.40;64.60;;;;;;5108820;28;20122;-76
2022/05/01 11:35:56;;;;;;;6.60;5.57;;;14.40;62.60;;;;;;5097261;28;20073;-76
2022/05/01 11:38:37;;;;;;;6.85;4.35;;;14.50;60.00;;;;;;5107954;28;20108;-76
2022/05/01 11:41:04;;;;;;;8.90;4.57;;;14.60;62.10;;;;;;5107276;27;20517;-76
2022/05/01 11:43:32;;;;;;;7.13;4.20;;;14.70;59.60;;;;;;5107252;28;20083;-83
2022/05/01 11:46:01;;;;;;;5.10;4.40;;;14.80;58.10;;;;;;5089473;28;20321;-73
2022/05/01 11:48:27;;;;;;;7.47;4.63;;;14.80;56.70;;;;;;5091676;28;20055;-74
2022/05/01 11:50:58;;;;;;;;;;;14.80;56.80;;;;;;5094137;27;21620;-74
2022/05/01 11:53:32;;;;;;;6.53;4.63;;;14.80;59.80;;;;;;5105534;27;19920;-73
2022/05/01 12:04:35;;;;;;;6.68;4.68;;;14.80;59.20;;;;;;5091436;28;20105;-73
2022/05/01 12:07:15;;;;;;;6.35;4.85;;;14.80;57.80;;;;;;5095741;28;20118;-73
2022/05/01 12:09:42;;;;;;;5.57;4.60;;;14.70;57.70;;;;;;5102807;28;20421;-73
2022/05/01 12:12:28;;;;;;;7.15;4.75;;;14.70;57.50;;;;;;5103720;28;20041;-74
2022/05/01 12:14:54;;;;;;;7.43;5.05;;;14.70;57.60;;;;;;5095871;28;20503;-74
2022/05/01 12:17:21;;;;;;;5.55;4.30;;;14.70;58.60;;;;;;5095840;28;20063;-75
2022/05/01 12:19:48;;;;;;;5.15;4.60;;;14.70;58.10;;;;;;5103203;28;20036;-73
2022/05/01 12:22:16;;;;;;;6.55;4.80;;;14.70;58.00;;;;;;5097142;28;20032;-75
2022/05/01 12:24:46;;;;;;;5.63;4.78;;;14.80;57.40;;;;;;5097049;28;20511;-75
2022/05/01 12:27:13;;;;;;;7.57;4.72;;;14.80;56.90;;;;;;5099771;28;20040;-75
2022/05/01 12:29:45;;;;;;;6.63;4.65;;;14.90;56.90;;;;;;5101554;28;20075;-75
2022/05/01 12:32:13;;;;;;;7.55;4.78;;;14.90;56.50;;;;;;5096414;28;20036;-75
2022/05/01 12:34:48;;;;;;;5.78;4.32;;;14.90;56.30;;;;;;5105771;28;20406;-75
2022/05/01 12:37:18;;;;;;;6.60;4.65;;;14.90;56.50;;;;;;5102273;28;20062;-76
2022/05/01 12:39:58;;;;;;;7.07;4.75;;;15.00;55.90;;;;;;5094680;28;20047;-71
2022/05/01 12:45:22;;;;;;;6.95;4.55;;;14.90;54.40;;;;;;5077866;27;20526;-75
2022/05/01 12:47:48;;;;;;;6.88;5.05;;;15.00;56.10;;;;;;5106604;27;20048;-77
2022/05/01 12:50:21;;;;;;;6.95;4.75;;;15.00;56.00;;;;;;5099215;28;20440;-73
2022/05/01 12:52:53;;;;;;;7.43;4.82;;;15.00;54.70;;;;;;5112391;28;20090;-75
2022/05/01 12:55:19;;;;;;;6.28;4.38;;;15.00;54.90;;;;;;5099332;28;20072;-75
2022/05/01 12:57:48;;;;;;;5.70;4.33;;;15.00;54.70;;;;;;5091923;28;20048;-76
2022/05/01 13:00:31;;;;;;;6.47;4.55;;;15.00;55.50;;;;;;5091125;28;20329;-74
2022/05/01 13:03:11;;;;;;;4.53;3.92;;;15.10;54.90;;;;;;5107543;27;20097;-74
2022/05/01 13:05:38;;;;;;;6.70;4.50;;;15.20;56.00;;;;;;5091747;28;20051;-76
2022/05/01 13:08:18;;;;;;;7.25;4.72;;;15.40;56.80;;;;;;5106017;27;20039;-75
2022/05/01 13:11:04;;;;;;;6.88;5.13;;;15.50;55.20;;;;;;5108790;27;20099;-74
2022/05/01 13:13:40;;;;;;;6.75;5.20;;;15.50;53.90;;;;;;5114880;28;20510;-74
2022/05/01 13:16:06;;;;;;;7.37;4.80;;;15.50;53.60;;;;;;5117169;28;20084;-74
2022/05/01 13:18:31;;;;;;;5.60;4.97;;;15.50;53.30;;;;;;5114040;28;20414;-74
2022/05/01 13:21:00;;;;;;;6.97;4.80;;;15.60;54.40;;;;;;5108985;28;20047;-74